Language selection

Features

My Weather Profile Weather Topics  | 

Belle Isle Bank: Past 24 Hour Conditions

 

Cartwright Airport

03:00 PM ADT 17 April 2021
Disclaimer

This table is a summary of hourly weather conditions for the past 24 hours.
Please note that these observations might not always be representative of weather conditions over their associated marine area.

Date / Time
(ADT)
Wind(knots) Conditions Visibility(km) Pressure(kPa) Air tempC) Relative humidity(%) Dew pointC) Wind Chill
17 April 2021
15:00 SSW 7 Sunny 16 101.9 5 46 -5 *
14:00 SW 10 gust 15 Sunny 16 102.0 5 50 -5 *
13:00 SW 7 Partly Cloudy 16 102.0 3 57 -4 *
12:00 WSW 8 Mostly Cloudy 16 102.1 2 60 -5 *
11:00 SW 8 gust 15 Cloudy 16 102.1 1 66 -5 *
10:00 WSW 5 Cloudy 16 102.2 0 70 -5 -4
9:00 SSW 7 Cloudy 16 102.2 -1 70 -6 -6
8:00 S 5 Cloudy 16 102.2 -3 75 -6 -6
7:00 S 5 Cloudy 16 102.2 -3 77 -7 -7
6:00 SSW 3 Cloudy 16 102.2 -3 78 -7 -5
5:00 SSE 4 Cloudy 16 102.2 -3 75 -7 -7
4:00 SSE 2 Cloudy 16 102.2 -4 78 -7 -5
3:00 calm Light Snow 16 102.2 -4 79 -7 *
2:00 NE 2 Cloudy 16 102.3 -4 76 -8 -6
1:00 calm Cloudy 16 102.3 -5 76 -8 *
0:00 E 4 Cloudy 16 102.3 -5 76 -8 -8
16 April 2021
23:00 ENE 3 Cloudy 16 102.4 -5 76 -9 -7
22:00 NE 2 Cloudy 16 102.4 -6 79 -9 -8
21:00 ENE 3 Cloudy 16 102.4 -5 74 -9 -7
20:00 NE 4 Cloudy 16 102.3 -5 74 -9 -8
19:00 ENE 8 Mostly Cloudy 16 102.3 -4 70 -9 -9
18:00 NE 8 Sunny 16 102.3 -3 72 -8 -8
17:00 NNE 11 Sunny 16 102.3 -3 71 -8 -10
16:00 NNE 10 Sunny 16 102.3 -3 71 -8 -9
15:00 NNE 11 Sunny 16 102.3 -3 68 -8 -9

Zoom-in to make a selection

Map of Atlantic - Labrador marine weather areas Kangiqsualujjuaq Airport Cape Kakkiviak Cape Kiglapait Cartwright Airport CFB Goose Bay Hopedale Mary's Harbour Nain Airport Makkovik Airport Saglek Tukialik Bay
Legend:
buoy Buoy
land station Land Station

Atlantic - Labrador Area

Another Region

What we are doing

Date modified: